Ashton, Illinois
Current Conditions -  °F | °C
As of 3:35 AM on Saturday 25 Oct 2014 (Local Time) from KRPJ Reporting Station
Haze Haze  
Wind Chill: 13°   Ceiling: 400
Heat Index: 13°   Visibility: 3mi
Dew Point: 13°   Wind: 9mph
Humidity: 97%   Direction: 300°WNW
Pressure: 29.92"   Gusts: NA
Location:  41.87°N, 89.22°W
Report Text: KRPJ 250835Z AUTO 30008KT 3SM BR OVC004 13/13 A2992 RMK AO2 T01340130
Loading
Personal Weather Stations






























Interactive Weather Map
Tropical Storm Tracking
New forecast layout! Learn more

10-Day Weather Forecast

Advertisements
Track Severe Weather on mobile